Time;durP1;ratioP1;P1;durP2;ratioP2;P2;SDS_P1;SDS_P2;PMS_P1;PMS_P2;Temp;Humidity;BMP_temperature;BMP_pressure;BME280_temperature;BME280_humidity;BME280_pressure;Samples;Min_cycle;Max_cycle;Signal;HPM_P1;HPM_P2
2023/02/06 00:01:18;;;;;;;32.50;13.30;;;;;;;-5.36;83.29;100553.89;106231;1282;138757;-73
2023/02/06 00:03:45;;;;;;;31.10;13.50;;;;;;;-5.38;83.28;100558.58;106434;1282;24208;-73
2023/02/06 00:06:12;;;;;;;29.10;13.60;;;;;;;-5.39;83.24;100552.99;106293;1283;138850;-73
2023/02/06 00:08:39;;;;;;;34.20;14.50;;;;;;;-5.41;82.85;100554.17;106616;1265;22543;-73
2023/02/06 00:11:10;;;;;;;32.90;14.10;;;;;;;-5.40;83.25;100552.69;106568;1279;24400;-73
2023/02/06 00:13:37;;;;;;;26.90;12.40;;;;;;;-5.37;83.37;100555.75;106548;1281;139626;-73
2023/02/06 00:16:13;;;;;;;31.10;13.00;;;;;;;-5.36;83.06;100554.45;106532;1281;25229;-73
2023/02/06 00:18:40;;;;;;;30.50;12.70;;;;;;;-5.37;83.21;100555.16;106378;1264;139145;-73
2023/02/06 00:21:07;;;;;;;31.40;13.00;;;;;;;-5.36;83.14;100550.00;106500;1282;25351;-73
2023/02/06 00:23:34;;;;;;;27.80;12.30;;;;;;;-5.35;83.54;100540.73;106464;1283;22556;-73
2023/02/06 00:26:01;;;;;;;28.80;12.30;;;;;;;-5.35;82.64;100547.46;106407;1279;139287;-73
2023/02/06 00:28:28;;;;;;;28.00;12.40;;;;;;;-5.36;83.00;100551.05;106471;1260;22550;-73
2023/02/06 00:30:57;;;;;;;29.30;13.50;;;;;;;-5.37;82.83;100544.02;106439;1281;138809;-73
2023/02/06 00:33:24;;;;;;;29.60;12.30;;;;;;;-5.37;82.52;100541.36;106441;1280;22548;-73
2023/02/06 00:35:51;;;;;;;26.10;12.00;;;;;;;-5.38;83.29;100540.90;106499;1281;24254;-73
2023/02/06 00:38:18;;;;;;;24.80;11.20;;;;;;;-5.39;82.87;100537.42;106376;1274;138549;-73
2023/02/06 00:40:46;;;;;;;26.50;11.30;;;;;;;-5.41;83.20;100536.52;106621;1282;25058;-73
2023/02/06 00:43:13;;;;;;;29.10;12.80;;;;;;;-5.43;82.96;100537.84;106262;1282;138959;-73
2023/02/06 00:45:40;;;;;;;30.30;12.60;;;;;;;-5.44;83.12;100540.19;106566;1282;22573;-73
2023/02/06 00:48:15;;;;;;;24.50;10.90;;;;;;;-5.45;82.63;100543.11;106453;1282;139139;-73
2023/02/06 00:50:42;;;;;;;29.40;12.10;;;;;;;-5.46;83.09;100538.73;106586;1260;22569;-73
2023/02/06 00:53:09;;;;;;;29.50;11.90;;;;;;;-5.47;82.98;100539.84;106432;1279;24249;-73
2023/02/06 00:55:36;;;;;;;27.30;10.80;;;;;;;-5.47;83.18;100538.42;106535;1281;139046;-73
2023/02/06 00:58:03;;;;;;;28.30;12.20;;;;;;;-5.45;83.09;100540.13;106496;1269;22537;-73
2023/02/06 01:00:31;;;;;;;27.00;11.00;;;;;;;-5.46;83.23;100535.56;106273;1262;139399;-73
2023/02/06 01:02:58;;;;;;;23.30;9.60;;;;;;;-5.49;82.80;100533.25;106401;1283;22625;-73
2023/02/06 01:05:25;;;;;;;26.00;12.10;;;;;;;-5.50;82.87;100539.48;106414;1283;22533;-73
2023/02/06 01:07:52;;;;;;;22.60;10.40;;;;;;;-5.52;82.94;100544.56;106481;1276;138684;-73
2023/02/06 01:10:19;;;;;;;22.10;10.60;;;;;;;-5.52;82.88;100547.75;106525;1262;22643;-73
2023/02/06 01:12:46;;;;;;;24.10;11.10;;;;;;;-5.52;82.64;100541.56;106286;1282;140691;-73
2023/02/06 01:15:14;;;;;;;21.20;10.50;;;;;;;-5.52;82.67;100532.35;106471;1276;22530;-73
2023/02/06 01:17:41;;;;;;;24.60;11.30;;;;;;;-5.49;83.01;100526.88;106428;1282;22553;-73
2023/02/06 01:20:11;;;;;;;23.70;10.70;;;;;;;-5.46;82.83;100527.77;106369;1280;139401;-73
2023/02/06 01:22:39;;;;;;;20.60;9.20;;;;;;;-5.45;82.66;100522.91;106235;1283;24308;-73
2023/02/06 01:25:07;;;;;;;25.00;10.30;;;;;;;-5.45;82.17;100519.05;106310;1283;138688;-73
2023/02/06 01:27:36;;;;;;;24.90;11.10;;;;;;;-5.45;82.21;100515.33;106205;1279;22614;-73
2023/02/06 01:30:06;;;;;;;27.10;11.90;;;;;;;-5.44;82.49;100506.58;106225;1267;139675;-73
2023/02/06 01:32:40;;;;;;;27.50;10.70;;;;;;;-5.43;82.44;100509.33;106759;1281;22530;-73
2023/02/06 01:35:11;;;;;;;24.60;10.60;;;;;;;-5.41;82.58;100507.33;106598;1265;22548;-73
2023/02/06 01:37:40;;;;;;;25.20;11.60;;;;;;;-5.40;82.41;100503.88;106378;1280;140669;-73
2023/02/06 01:40:13;;;;;;;22.40;9.90;;;;;;;-5.38;82.57;100501.63;106421;1266;25410;-73
2023/02/06 01:42:41;;;;;;;22.80;10.30;;;;;;;-5.33;82.85;100509.64;106108;1284;139197;-73
2023/02/06 01:45:38;;;;;;;26.60;11.40;;;;;;;-5.29;82.59;100504.28;106531;1276;25291;-73
2023/02/06 01:48:10;;;;;;;23.30;10.50;;;;;;;-5.27;82.60;100500.08;106269;1281;138846;-73
2023/02/06 01:50:41;;;;;;;24.60;11.70;;;;;;;-5.24;82.42;100502.92;106380;1264;23159;-73
2023/02/06 01:53:11;;;;;;;27.20;11.40;;;;;;;-5.21;82.16;100500.75;106502;1282;22547;-73
2023/02/06 01:55:42;;;;;;;25.70;10.60;;;;;;;-5.21;82.33;100498.27;106297;1283;138741;-73
2023/02/06 01:58:14;;;;;;;23.00;9.80;;;;;;;-5.21;82.35;100503.06;106510;1282;22542;-73
2023/02/06 02:00:42;;;;;;;25.90;11.20;;;;;;;-5.23;81.68;100498.05;106299;1280;138499;-73
2023/02/06 02:03:09;;;;;;;25.70;12.10;;;;;;;-5.24;81.92;100497.44;106366;1265;23832;-73
2023/02/06 02:05:39;;;;;;;23.40;11.40;;;;;;;-5.23;81.95;100496.14;106688;1280;24222;-73
2023/02/06 02:08:17;;;;;;;22.50;10.70;;;;;;;-5.22;82.39;100490.52;106314;1283;139729;-73
2023/02/06 02:10:44;;;;;;;23.40;11.10;;;;;;;-5.20;82.13;100486.40;106421;1264;22492;-73
2023/02/06 02:13:11;;;;;;;28.40;11.30;;;;;;;-5.19;82.08;100486.48;106271;1281;138716;-73
2023/02/06 02:15:53;;;;;;;21.60;10.80;;;;;;;-5.19;82.00;100485.96;106378;1281;24199;-73
2023/02/06 02:18:46;;;;;;;24.10;10.90;;;;;;;-5.18;81.57;100482.02;106336;1276;138901;-73
2023/02/06 02:21:52;;;;;;;23.00;10.60;;;;;;;-5.16;81.85;100475.48;106404;1260;25436;-73
2023/02/06 02:24:39;;;;;;;19.80;9.90;;;;;;;-5.10;81.91;100480.81;106252;1284;139329;-73
2023/02/06 02:27:20;;;;;;;22.30;10.60;;;;;;;-5.07;82.10;100479.39;106268;1282;22538;-73
2023/02/06 02:30:31;;;;;;;19.40;10.20;;;;;;;-5.04;81.84;100476.39;106303;1262;24205;-73
2023/02/06 02:33:36;;;;;;;23.10;10.60;;;;;;;-5.01;81.68;100471.75;106860;1262;25232;-73
2023/02/06 02:36:29;;;;;;;18.60;8.70;;;;;;;-4.99;81.07;100469.48;106286;1282;139629;-73
2023/02/06 02:39:09;;;;;;;21.10;10.00;;;;;;;-5.02;80.69;100472.51;106633;1281;25506;-73
2023/02/06 02:41:47;;;;;;;24.00;10.40;;;;;;;-5.08;80.99;100465.61;106603;1264;22650;-73
2023/02/06 02:44:27;;;;;;;19.60;10.10;;;;;;;-5.10;81.38;100459.75;106376;1282;138914;-73
2023/02/06 02:46:59;;;;;;;23.20;10.40;;;;;;;-5.11;81.21;100460.48;106514;1276;22548;-73
2023/02/06 02:49:30;;;;;;;25.30;10.70;;;;;;;-5.11;81.02;100453.02;106341;1282;138849;-73
2023/02/06 02:51:59;;;;;;;20.40;10.40;;;;;;;-5.10;81.14;100446.96;106592;1259;22550;-73
2023/02/06 02:54:27;;;;;;;;;;;;;;;-5.07;81.47;100449.30;106476;1277;139687;-73
2023/02/06 02:57:00;;;;;;;21.40;10.30;;;;;;;-5.04;81.45;100449.80;106643;1278;25303;-73
2023/02/06 02:59:38;;;;;;;24.70;9.90;;;;;;;-5.01;81.69;100444.80;106504;1281;22535;-73
2023/02/06 03:02:34;;;;;;;22.90;10.10;;;;;;;-4.96;82.14;100444.86;106430;1272;139128;-73
2023/02/06 03:05:07;;;;;;;22.90;10.60;;;;;;;-4.90;81.95;100451.58;106451;1282;24257;-73
2023/02/06 03:07:47;;;;;;;21.50;10.90;;;;;;;-4.87;81.53;100448.71;106601;1282;138666;-73
2023/02/06 03:10:26;;;;;;;29.40;12.80;;;;;;;-4.84;81.72;100451.17;106525;1279;25324;-73
2023/02/06 03:13:03;;;;;;;;;;;;;;;-4.83;81.01;100447.61;106371;1267;140122;-73
2023/02/06 03:15:44;;;;;;;24.20;10.50;;;;;;;-4.82;81.56;100444.52;106769;1281;22554;-73
2023/02/06 03:18:18;;;;;;;23.40;11.90;;;;;;;-4.80;81.91;100444.21;106456;1281;139483;-73
2023/02/06 03:20:47;;;;;;;22.30;11.40;;;;;;;-4.75;81.97;100442.15;106649;1278;22531;-73
2023/02/06 03:23:22;;;;;;;24.30;11.60;;;;;;;-4.72;81.74;100442.35;106561;1263;25336;-73
2023/02/06 03:25:53;;;;;;;25.50;11.90;;;;;;;-4.71;81.47;100445.44;107146;1282;139214;-73
2023/02/06 03:28:30;;;;;;;26.00;12.50;;;;;;;-4.71;81.28;100449.17;106438;1282;25353;-73
2023/02/06 03:30:59;;;;;;;27.80;12.60;;;;;;;-4.73;80.99;100452.33;106430;1282;138895;-73
2023/02/06 03:33:29;;;;;;;;;;;;;;;-4.77;80.45;100453.95;106410;1266;24305;-73
2023/02/06 03:35:56;;;;;;;25.90;11.60;;;;;;;-4.82;80.65;100457.25;106518;1281;25233;-73
2023/02/06 03:38:24;;;;;;;22.10;11.60;;;;;;;-4.87;80.82;100454.96;106432;1281;139179;-73
2023/02/06 03:40:53;;;;;;;27.10;12.10;;;;;;;-4.92;80.80;100456.66;106460;1281;22952;-73
2023/02/06 03:43:24;;;;;;;29.80;14.70;;;;;;;-4.97;80.45;100463.17;106318;1276;139967;-73
2023/02/06 03:45:59;;;;;;;26.00;12.60;;;;;;;-5.05;80.90;100465.45;106519;1284;25364;-73
2023/02/06 03:48:34;;;;;;;28.20;12.80;;;;;;;-5.09;81.11;100471.39;106603;1280;139973;-73
2023/02/06 03:51:07;;;;;;;23.60;10.80;;;;;;;-5.16;80.96;100468.91;106486;1272;22534;-73
2023/02/06 03:53:36;;;;;;;22.40;10.90;;;;;;;-5.25;81.14;100467.54;106500;1264;22537;-73
2023/02/06 03:56:10;;;;;;;21.30;10.50;;;;;;;-5.31;80.86;100467.95;106763;1281;138734;-73
2023/02/06 03:58:37;;;;;;;26.50;12.40;;;;;;;-5.37;81.28;100461.73;106497;1267;22555;-73
2023/02/06 04:01:05;;;;;;;27.40;11.20;;;;;;;-5.42;81.47;100467.71;106527;1281;138677;-73
2023/02/06 04:03:33;;;;;;;28.80;11.80;;;;;;;-5.47;81.19;100463.58;106530;1264;22558;-73
2023/02/06 04:06:00;;;;;;;22.80;11.80;;;;;;;-5.49;81.44;100466.17;106423;1280;138933;-73
2023/02/06 04:08:27;;;;;;;26.20;11.90;;;;;;;-5.47;81.84;100463.07;106557;1276;22557;-73
2023/02/06 04:10:54;;;;;;;25.80;12.20;;;;;;;-5.45;81.53;100459.40;106467;1282;22546;-73
2023/02/06 04:13:21;;;;;;;25.30;11.60;;;;;;;-5.42;82.01;100453.71;106383;1281;138986;-73
2023/02/06 04:15:48;;;;;;;23.40;11.70;;;;;;;-5.38;81.87;100452.99;106530;1280;25298;-73
2023/02/06 04:18:15;;;;;;;22.00;11.20;;;;;;;-5.36;81.59;100447.16;106087;1282;480911;-73
2023/02/06 04:20:42;;;;;;;22.70;10.90;;;;;;;-5.33;81.84;100437.94;106627;1279;22734;-73
2023/02/06 04:23:09;;;;;;;23.20;11.70;;;;;;;-5.32;81.37;100435.97;106645;1261;25367;-73
2023/02/06 04:25:36;;;;;;;27.30;12.10;;;;;;;-5.30;81.82;100442.38;106238;1283;139225;-74
2023/02/06 04:28:03;;;;;;;24.60;11.10;;;;;;;-5.27;81.98;100444.86;106389;1273;23083;-73
2023/02/06 04:30:30;;;;;;;24.50;12.00;;;;;;;-5.26;81.81;100448.31;106189;1271;140184;-73
2023/02/06 04:32:56;;;;;;;27.30;11.60;;;;;;;-5.23;81.99;100448.67;106564;1283;22710;-73
2023/02/06 04:35:23;;;;;;;24.70;11.60;;;;;;;-5.20;81.75;100452.05;106565;1282;25237;-73
2023/02/06 04:37:50;;;;;;;23.10;11.70;;;;;;;-5.20;81.61;100453.93;106439;1281;138771;-73
2023/02/06 04:40:17;;;;;;;22.90;11.90;;;;;;;-5.19;81.70;100459.55;106587;1281;22537;-73
2023/02/06 04:42:45;;;;;;;29.00;12.00;;;;;;;-5.16;81.62;100458.31;106523;1279;139723;-73
2023/02/06 04:45:12;;;;;;;26.70;11.30;;;;;;;-5.18;81.56;100457.52;106569;1264;22569;-73
2023/02/06 04:47:39;;;;;;;23.70;12.10;;;;;;;-5.19;80.68;100463.42;106629;1282;24264;-73
2023/02/06 04:50:06;;;;;;;29.20;12.80;;;;;;;-5.22;80.81;100465.78;106431;1282;138781;-73
2023/02/06 04:52:33;;;;;;;23.90;12.50;;;;;;;-5.27;80.94;100465.71;106736;1281;24304;-73
2023/02/06 04:55:01;;;;;;;25.20;11.70;;;;;;;-5.30;81.60;100468.57;106538;1263;139404;-73
2023/02/06 04:57:28;;;;;;;19.30;8.70;;;;;;;-5.33;81.29;100464.49;106536;1281;25275;-72
2023/02/06 04:59:55;;;;;;;35.60;15.40;;;;;;;-5.38;80.92;100467.25;106610;1278;22622;-73
2023/02/06 05:02:22;;;;;;;30.80;12.80;;;;;;;-5.41;80.97;100468.67;106527;1280;138776;-73
2023/02/06 05:04:49;;;;;;;33.40;14.80;;;;;;;-5.44;80.91;100466.93;106499;1275;22544;-73
2023/02/06 05:07:16;;;;;;;29.80;11.80;;;;;;;-5.46;80.81;100464.58;106423;1275;138977;-72
2023/02/06 05:09:43;;;;;;;30.50;13.10;;;;;;;-5.47;80.74;100470.33;106534;1282;22531;-73
2023/02/06 05:12:10;;;;;;;26.90;11.20;;;;;;;-5.48;81.09;100472.16;106492;1282;139363;-73
2023/02/06 05:14:37;;;;;;;25.10;10.60;;;;;;;-5.48;80.92;100473.18;106750;1265;22541;-73
2023/02/06 05:17:04;;;;;;;21.70;10.60;;;;;;;-5.50;80.52;100471.70;106515;1282;22796;-73
2023/02/06 05:19:31;;;;;;;21.90;12.10;;;;;;;-5.52;80.44;100476.08;106551;1275;138660;-73
2023/02/06 05:21:58;;;;;;;24.50;11.50;;;;;;;-5.55;80.76;100480.34;106563;1281;22616;-73
2023/02/06 05:24:25;;;;;;;22.10;11.70;;;;;;;-5.57;80.65;100480.61;106505;1260;139582;-73
2023/02/06 05:26:56;;;;;;;22.80;11.40;;;;;;;-5.56;80.87;100480.05;106468;1283;26539;-73
2023/02/06 05:29:25;;;;;;;25.30;11.60;;;;;;;-5.55;80.69;100485.45;106479;1282;25010;-73
2023/02/06 05:31:52;;;;;;;22.10;10.40;;;;;;;-5.54;80.50;100485.96;106391;1277;139189;-73
2023/02/06 05:34:19;;;;;;;22.90;11.30;;;;;;;-5.54;80.36;100488.94;106632;1278;24416;-73
2023/02/06 05:36:45;;;;;;;22.10;11.50;;;;;;;-5.54;80.57;100490.15;106550;1263;138719;-73
2023/02/06 05:39:13;;;;;;;22.20;10.30;;;;;;;-5.53;80.44;100484.98;106572;1281;22534;-73
2023/02/06 05:41:40;;;;;;;19.10;10.30;;;;;;;-5.51;80.60;100486.32;106597;1279;22544;-73
2023/02/06 05:44:09;;;;;;;23.60;11.20;;;;;;;-5.50;80.26;100485.55;106563;1281;138752;-73
2023/02/06 05:46:37;;;;;;;23.60;11.30;;;;;;;-5.49;80.39;100485.13;106444;1276;25342;-73
2023/02/06 05:49:04;;;;;;;23.20;11.10;;;;;;;-5.48;80.37;100486.13;106371;1281;138759;-73
2023/02/06 05:51:31;;;;;;;22.30;11.40;;;;;;;-5.48;80.14;100487.17;106533;1280;25489;-73
2023/02/06 05:53:58;;;;;;;19.00;10.60;;;;;;;-5.46;80.87;100488.29;106386;1281;26498;-73
2023/02/06 05:56:25;;;;;;;21.90;10.00;;;;;;;-5.43;80.86;100488.65;106529;1259;22658;-73
2023/02/06 05:58:52;;;;;;;22.80;10.10;;;;;;;-5.42;80.33;100485.75;106474;1282;22563;-72
2023/02/06 06:01:19;;;;;;;22.80;10.10;;;;;;;-5.44;80.07;100486.40;106570;1282;138689;-72
2023/02/06 06:03:46;;;;;;;25.50;11.00;;;;;;;-5.44;79.93;100485.02;106637;1279;22693;-73
2023/02/06 06:06:13;;;;;;;27.70;12.20;;;;;;;-5.44;80.32;100487.81;106335;1267;139126;-73
2023/02/06 06:08:40;;;;;;;24.40;11.40;;;;;;;-5.42;79.89;100484.89;106587;1282;24337;-73
2023/02/06 06:11:07;;;;;;;21.10;11.30;;;;;;;-5.41;80.15;100488.71;106436;1282;23316;-73
2023/02/06 06:13:34;;;;;;;24.50;12.60;;;;;;;-5.41;79.82;100483.55;106305;1282;138951;-73
2023/02/06 06:16:01;;;;;;;22.50;11.10;;;;;;;-5.39;79.74;100477.27;106392;1281;22548;-73
2023/02/06 06:18:28;;;;;;;24.60;11.60;;;;;;;-5.40;79.95;100484.37;106431;1282;138822;-73
2023/02/06 06:20:55;;;;;;;23.90;11.70;;;;;;;-5.37;80.40;100478.92;106535;1282;22552;-72
2023/02/06 06:23:22;;;;;;;23.80;11.00;;;;;;;-5.34;80.16;100478.91;106456;1278;24245;-73
2023/02/06 06:25:49;;;;;;;20.70;11.80;;;;;;;-5.31;80.06;100479.41;106352;1267;138792;-73
2023/02/06 06:28:16;;;;;;;22.70;10.70;;;;;;;-5.30;79.41;100478.11;106623;1284;25391;-73
2023/02/06 06:30:43;;;;;;;21.90;11.80;;;;;;;-5.30;79.41;100477.26;106883;1276;138991;-73
2023/02/06 06:33:10;;;;;;;21.70;10.50;;;;;;;-5.28;79.04;100476.45;106837;1278;23929;-73
2023/02/06 06:35:37;;;;;;;22.70;10.70;;;;;;;-5.25;79.22;100479.63;106867;1260;25265;-73
2023/02/06 06:38:04;;;;;;;23.10;11.00;;;;;;;-5.15;80.56;100474.94;107568;1276;138986;-74
2023/02/06 06:40:31;;;;;;;21.30;11.40;;;;;;;-5.08;79.85;100472.04;107775;1275;25470;-73
2023/02/06 06:42:58;;;;;;;23.70;10.50;;;;;;;-5.02;80.23;100473.57;106989;1274;138756;-73
2023/02/06 06:45:25;;;;;;;25.20;11.70;;;;;;;-4.96;80.29;100474.23;106659;1268;22542;-73
2023/02/06 06:47:52;;;;;;;26.20;11.80;;;;;;;-4.88;79.87;100472.90;106586;1271;22574;-73
2023/02/06 06:50:19;;;;;;;24.50;11.10;;;;;;;-4.83;79.73;100477.01;106662;1275;138618;-73
2023/02/06 06:52:46;;;;;;;22.00;11.60;;;;;;;-4.79;78.83;100477.65;106575;1275;22656;-74
2023/02/06 06:55:12;;;;;;;19.40;10.30;;;;;;;-4.77;78.43;100485.83;106550;1277;138890;-73
2023/02/06 06:57:39;;;;;;;28.20;11.30;;;;;;;-4.74;78.74;100486.21;106803;1276;22552;-73
2023/02/06 07:00:08;;;;;;;18.80;10.20;;;;;;;-4.73;78.11;100484.39;106309;1281;139132;-73
2023/02/06 07:02:35;;;;;;;24.70;11.30;;;;;;;-4.63;79.72;100485.64;106493;1281;25275;-73
2023/02/06 07:05:04;;;;;;;21.00;10.40;;;;;;;-4.54;79.14;100486.89;106526;1281;24399;-73
2023/02/06 07:07:31;;;;;;;21.40;10.90;;;;;;;-4.48;78.40;100487.90;106342;1265;139376;-73
2023/02/06 07:09:58;;;;;;;33.40;13.20;;;;;;;-4.44;78.14;100489.39;106301;1284;22564;-73
2023/02/06 07:12:27;;;;;;;38.20;17.20;;;;;;;-4.37;78.14;100489.19;106309;1281;138926;-73
2023/02/06 07:14:53;;;;;;;36.40;15.90;;;;;;;-4.32;78.50;100484.95;106386;1284;22629;-73
2023/02/06 07:17:20;;;;;;;43.60;20.60;;;;;;;-4.22;79.13;100487.13;108588;1264;24240;-74
2023/02/06 07:19:50;;;;;;;36.20;18.00;;;;;;;-4.11;78.28;100494.75;107411;1281;138856;-73
2023/02/06 07:22:20;;;;;;;37.60;17.80;;;;;;;-4.04;78.01;100489.14;106814;1276;23316;-73
2023/02/06 07:24:47;;;;;;;32.10;15.70;;;;;;;-3.95;77.97;100487.48;107094;1276;138833;-74
2023/02/06 07:27:14;;;;;;;29.20;13.20;;;;;;;-3.88;77.31;100486.33;106596;1280;22583;-74
2023/02/06 07:29:42;;;;;;;31.90;14.70;;;;;;;-3.86;76.53;100480.48;106354;1283;25508;-73
2023/02/06 07:32:09;;;;;;;30.50;15.60;;;;;;;-3.84;75.86;100483.23;106268;1282;138740;-73
2023/02/06 07:34:37;;;;;;;31.10;15.20;;;;;;;-3.82;75.75;100482.52;106383;1272;22541;-73
2023/02/06 07:37:05;;;;;;;28.90;13.10;;;;;;;-3.80;75.47;100483.67;106504;1257;138028;-73
2023/02/06 07:39:32;;;;;;;54.60;23.00;;;;;;;-3.83;74.41;100480.44;106514;1281;23909;-73
2023/02/06 07:41:58;;;;;;;63.60;25.60;;;;;;;-3.82;74.54;100484.83;106745;1275;23000;-73
2023/02/06 07:44:31;;;;;;;39.30;17.60;;;;;;;-3.80;74.39;100484.39;106577;1277;22554;-72
2023/02/06 07:46:58;;;;;;;35.70;16.20;;;;;;;-3.79;74.49;100483.55;106596;1260;22556;-73
2023/02/06 07:49:25;;;;;;;34.70;15.20;;;;;;;-3.74;73.98;100481.25;106458;1265;138211;-73
2023/02/06 07:51:52;;;;;;;31.80;14.40;;;;;;;-3.73;73.77;100479.79;106382;1282;22544;-73
2023/02/06 07:54:19;;;;;;;32.30;16.00;;;;;;;-3.71;73.40;100480.23;106310;1282;138864;-73
2023/02/06 07:56:46;;;;;;;30.90;15.30;;;;;;;-3.71;73.09;100482.15;106337;1282;23932;-73
2023/02/06 07:59:12;;;;;;;36.90;16.10;;;;;;;-3.70;73.47;100486.89;106685;1262;24370;-73
2023/02/06 08:01:39;;;;;;;37.00;17.40;;;;;;;-3.65;73.09;100487.95;106596;1281;138800;-73
2023/02/06 08:04:06;;;;;;;40.40;18.60;;;;;;;-3.61;72.97;100485.42;106666;1279;22553;-73
2023/02/06 08:06:34;;;;;;;39.20;19.00;;;;;;;-3.55;72.79;100487.14;106644;1282;139498;-73
2023/02/06 08:09:01;;;;;;;39.10;18.20;;;;;;;-3.48;72.40;100481.34;107059;1284;22577;-72
2023/02/06 08:11:29;;;;;;;30.20;15.50;;;;;;;-3.44;71.94;100479.47;106370;1283;22551;-72
2023/02/06 08:13:57;;;;;;;36.10;17.30;;;;;;;-3.40;71.61;100478.80;106151;1284;138931;-73
2023/02/06 08:16:24;;;;;;;33.60;16.60;;;;;;;-3.34;71.47;100475.00;106490;1283;22966;-73
2023/02/06 08:18:51;;;;;;;34.60;16.40;;;;;;;-3.27;71.61;100478.03;106442;1263;138894;-74
2023/02/06 08:21:21;;;;;;;30.90;14.60;;;;;;;-3.17;71.34;100470.11;106583;1282;22524;-73
2023/02/06 08:23:57;;;;;;;30.60;15.40;;;;;;;-3.12;70.76;100469.41;106473;1282;25357;-74
2023/02/06 08:26:25;;;;;;;30.50;14.20;;;;;;;-3.07;70.46;100473.15;106634;1282;138903;-73
2023/02/06 08:28:54;;;;;;;22.10;10.80;;;;;;;-3.04;70.05;100476.02;106601;1268;24193;-73
2023/02/06 08:31:26;;;;;;;21.00;11.20;;;;;;;-3.05;69.71;100473.23;106401;1283;138331;-74
2023/02/06 08:33:54;;;;;;;19.00;10.00;;;;;;;-3.03;69.46;100475.39;106559;1280;25351;-74
2023/02/06 08:36:23;;;;;;;16.50;9.30;;;;;;;-2.99;69.62;100477.39;106299;1262;138940;-74
2023/02/06 08:38:51;;;;;;;16.60;9.40;;;;;;;-2.91;69.95;100480.39;106598;1265;22500;-74
2023/02/06 08:41:35;;;;;;;20.10;10.30;;;;;;;-2.88;69.09;100480.88;106408;1278;22540;-74
2023/02/06 08:44:06;;;;;;;19.40;9.00;;;;;;;-2.83;69.51;100484.42;107606;1280;138404;-74
2023/02/06 08:46:33;;;;;;;19.10;10.50;;;;;;;-2.81;68.89;100481.13;107655;1267;22537;-75
2023/02/06 08:49:05;;;;;;;16.90;8.70;;;;;;;-2.79;69.22;100480.64;107282;1264;138185;-73
2023/02/06 08:51:34;;;;;;;19.90;9.20;;;;;;;-2.78;68.67;100483.03;106531;1281;22616;-74
2023/02/06 08:54:06;;;;;;;20.10;10.40;;;;;;;-2.84;68.03;100483.42;106769;1269;24244;-74
2023/02/06 08:56:35;;;;;;;19.00;10.20;;;;;;;-2.87;68.16;100483.80;106489;1278;24210;-74
2023/02/06 08:59:03;;;;;;;;;;;;;;;-2.86;68.62;100482.84;106539;1265;24211;-74
2023/02/06 09:01:32;;;;;;;17.30;8.70;;;;;;;-2.83;68.64;100478.08;106320;1280;124806;-73
2023/02/06 09:04:05;;;;;;;16.20;8.60;;;;;;;-2.84;67.71;100486.48;106626;1275;23773;-74
2023/02/06 09:06:37;;;;;;;18.40;8.70;;;;;;;-2.85;68.02;100480.50;107507;1278;139186;-74
2023/02/06 09:09:06;;;;;;;16.40;8.50;;;;;;;-2.87;67.50;100478.98;107831;1265;22523;-73
2023/02/06 09:11:34;;;;;;;16.90;9.00;;;;;;;-2.83;68.21;100478.18;107668;1276;23442;-74
2023/02/06 09:14:03;;;;;;;21.00;10.10;;;;;;;-2.76;67.81;100478.23;106722;1277;137813;-74
2023/02/06 09:16:32;;;;;;;18.20;8.70;;;;;;;-2.70;67.80;100482.65;107661;1275;23001;-73
2023/02/06 09:19:00;;;;;;;14.30;8.60;;;;;;;-2.65;67.38;100491.34;107028;1259;137807;-73
2023/02/06 09:21:30;;;;;;;16.40;7.20;;;;;;;-2.60;67.13;100495.08;106556;1282;26298;-73
2023/02/06 09:23:58;;;;;;;;;;;;;;;-2.56;66.50;100498.02;106556;1282;22551;-73
2023/02/06 09:26:36;;;;;;;10.90;5.40;;;;;;;-2.51;66.33;100505.07;106599;1282;124522;-73
2023/02/06 09:29:06;;;;;;;9.60;5.00;;;;;;;-2.44;66.18;100506.02;107090;1263;23190;-73
2023/02/06 09:31:36;;;;;;;11.50;5.90;;;;;;;-2.37;65.81;100507.27;106754;1278;138708;-72
2023/02/06 09:34:05;;;;;;;10.50;5.60;;;;;;;-2.26;65.63;100502.40;107227;1276;22558;-73
2023/02/06 09:36:33;;;;;;;8.80;5.70;;;;;;;-2.19;65.29;100500.49;106360;1282;138155;-72
2023/02/06 09:39:04;;;;;;;11.30;6.20;;;;;;;-2.15;65.12;100501.23;106346;1260;25354;-73
2023/02/06 09:41:43;;;;;;;11.60;5.70;;;;;;;-2.15;64.06;100499.46;106332;1268;22568;-72
2023/02/06 09:44:12;;;;;;;8.30;5.30;;;;;;;-2.15;64.41;100498.74;106685;1281;137911;-72
2023/02/06 09:46:58;;;;;;;10.60;5.60;;;;;;;-2.16;64.38;100498.81;107211;1276;25472;-73
2023/02/06 09:49:38;;;;;;;12.80;5.60;;;;;;;-2.14;64.28;100499.91;107292;1261;138059;-74
2023/02/06 09:52:14;;;;;;;6.40;5.00;;;;;;;-2.11;64.47;100497.89;107074;1281;24259;-72
2023/02/06 09:54:52;;;;;;;11.00;5.70;;;;;;;-2.06;64.44;100496.90;106485;1284;138395;-73
2023/02/06 09:57:38;;;;;;;11.10;5.50;;;;;;;-2.02;64.33;100491.78;106283;1284;25410;-72
2023/02/06 10:00:37;;;;;;;13.90;7.10;;;;;;;-1.98;63.06;100489.31;106321;1266;25254;-73
2023/02/06 10:03:10;;;;;;;;;;;;;;;-1.94;63.53;100493.15;106359;1279;24206;-74
2023/02/06 10:06:06;;;;;;;13.20;5.80;;;;;;;-1.87;63.62;100495.27;106366;1276;25243;-73
2023/02/06 10:08:42;;;;;;;12.50;6.10;;;;;;;-1.79;63.10;100496.11;106249;1284;137935;-73
2023/02/06 10:11:19;;;;;;;10.30;5.50;;;;;;;-1.79;62.08;100498.61;105992;1271;25694;-73
2023/02/06 10:13:54;;;;;;;11.00;5.70;;;;;;;-1.80;62.32;100497.94;105988;1286;138220;-73
2023/02/06 10:16:37;;;;;;;9.40;5.50;;;;;;;-1.76;62.43;100499.24;106408;1287;22555;-73
2023/02/06 10:19:45;;;;;;;9.20;5.40;;;;;;;-1.68;62.74;100502.96;106086;1287;137892;-73
2023/02/06 10:22:35;;;;;;;6.50;4.90;;;;;;;-1.66;61.73;100505.14;106190;1268;22555;-73
2023/02/06 10:25:15;;;;;;;8.70;5.20;;;;;;;-1.65;61.74;100500.02;105973;1287;138233;-73
2023/02/06 10:27:46;;;;;;;11.20;6.00;;;;;;;-1.65;62.22;100494.13;105903;1284;22665;-73
2023/02/06 10:30:16;;;;;;;9.20;5.20;;;;;;;-1.63;62.31;100491.67;106084;1285;138491;-73
2023/02/06 10:32:58;;;;;;;10.40;5.20;;;;;;;-1.54;61.97;100490.44;106355;1288;25471;-73
2023/02/06 10:35:47;;;;;;;7.80;4.80;;;;;;;-1.47;61.53;100488.00;106172;1281;25244;-73
2023/02/06 10:38:23;;;;;;;7.90;4.90;;;;;;;-1.42;61.75;100487.93;105963;1288;138135;-73
2023/02/06 10:40:59;;;;;;;8.10;4.60;;;;;;;-1.42;61.30;100487.80;106307;1265;22541;-73
2023/02/06 10:43:42;;;;;;;8.10;4.50;;;;;;;-1.51;60.67;100483.67;106494;1272;138283;-73
2023/02/06 10:46:41;;;;;;;8.20;5.10;;;;;;;-1.57;61.38;100485.55;106562;1278;22668;-73
2023/02/06 10:49:33;;;;;;;10.00;4.90;;;;;;;-1.57;61.27;100485.49;106228;1288;139035;-73
2023/02/06 10:52:06;;;;;;;11.40;7.20;;;;;;;-1.50;61.78;100479.10;105943;1271;22541;-74
2023/02/06 10:54:41;;;;;;;11.80;6.50;;;;;;;-1.42;61.54;100484.96;106124;1281;139854;-73
2023/02/06 10:57:15;;;;;;;10.30;5.20;;;;;;;-1.33;61.72;100491.91;106023;1281;22573;-74
2023/02/06 10:59:46;;;;;;;9.90;5.60;;;;;;;-1.19;61.75;100495.63;105905;1284;25609;-73
2023/02/06 11:02:31;;;;;;;10.30;5.70;;;;;;;-1.05;60.77;100494.69;105966;1269;138911;-73
2023/02/06 11:05:19;;;;;;;10.20;6.00;;;;;;;-1.02;59.52;100496.64;106065;1289;25587;-74
2023/02/06 11:07:54;;;;;;;11.00;6.20;;;;;;;-1.09;58.93;100498.29;105795;1288;138405;-73
2023/02/06 11:10:25;;;;;;;9.80;5.80;;;;;;;-1.11;58.70;100494.81;106075;1287;22586;-74
2023/02/06 11:13:20;;;;;;;9.00;5.30;;;;;;;-1.04;58.98;100495.69;105761;1271;137785;-74
2023/02/06 11:15:59;;;;;;;9.90;5.60;;;;;;;-0.88;58.63;100490.38;107080;1284;22666;-75
2023/02/06 11:18:34;;;;;;;9.20;5.60;;;;;;;-0.75;58.46;100491.70;105780;1288;137668;-73
2023/02/06 11:21:02;;;;;;;8.50;4.90;;;;;;;-0.68;58.64;100486.61;106084;1266;24222;-74